createdAt,value
2022-08-10T00:01:51.450Z,3.00
2022-08-10T00:04:21.433Z,3.17
2022-08-10T00:06:45.474Z,3.00
2022-08-10T00:09:13.826Z,3.30
2022-08-10T00:11:41.411Z,3.13
2022-08-10T00:14:10.188Z,2.90
2022-08-10T00:16:38.538Z,2.80
2022-08-10T00:19:06.121Z,2.70
2022-08-10T00:21:33.755Z,3.10
2022-08-10T00:24:01.358Z,2.70
2022-08-10T00:28:01.954Z,2.80
2022-08-10T00:28:57.334Z,2.80
2022-08-10T00:31:24.916Z,2.77
2022-08-10T00:33:52.502Z,2.90
2022-08-10T00:36:20.920Z,2.70
2022-08-10T00:38:49.244Z,2.67
2022-08-10T00:41:16.848Z,2.50
2022-08-10T00:43:44.453Z,3.12
2022-08-10T00:46:12.045Z,2.63
2022-08-10T00:48:39.670Z,3.15
2022-08-10T00:51:07.272Z,2.80
2022-08-10T00:53:35.638Z,2.70
2022-08-10T00:57:12.512Z,2.87
2022-08-10T00:58:31.691Z,3.10
2022-08-10T01:01:00.134Z,3.25
2022-08-10T01:04:36.266Z,2.80
2022-08-10T01:05:56.218Z,2.70
2022-08-10T01:08:33.485Z,3.12
2022-08-10T01:12:37.735Z,2.73
2022-08-10T01:14:02.833Z,2.93
2022-08-10T01:16:40.397Z,3.03
2022-08-10T01:19:26.393Z,2.87
2022-08-10T01:22:32.075Z,2.73
2022-08-10T01:25:18.345Z,2.80
2022-08-10T01:27:52.763Z,2.67
2022-08-10T01:30:21.123Z,2.57
2022-08-10T01:32:51.639Z,3.00
2022-08-10T01:35:34.122Z,3.20
2022-08-10T01:38:07.587Z,3.07
2022-08-10T01:40:35.936Z,2.63
2022-08-10T01:43:08.100Z,2.60
2022-08-10T01:45:45.159Z,3.12
2022-08-10T01:48:17.526Z,2.97
2022-08-10T01:50:59.544Z,2.50
2022-08-10T01:53:18.129Z,2.77
2022-08-10T01:55:46.513Z,3.17
2022-08-10T01:58:14.881Z,2.93
2022-08-10T02:00:43.233Z,2.80
2022-08-10T02:03:10.847Z,2.67
2022-08-10T02:05:38.440Z,2.90
2022-08-10T02:08:06.035Z,2.67
2022-08-10T02:10:35.637Z,3.20
2022-08-10T02:13:03.229Z,2.70
2022-08-10T02:15:30.823Z,2.70
2022-08-10T02:18:01.833Z,2.87
2022-08-10T02:20:26.021Z,3.20
2022-08-10T02:22:53.612Z,3.07
2022-08-10T02:25:41.156Z,2.60
2022-08-10T02:27:48.833Z,2.73
2022-08-10T02:30:16.416Z,3.10
2022-08-10T02:32:44.198Z,3.25
2022-08-10T02:35:22.466Z,2.70
2022-08-10T02:37:40.005Z,2.90
2022-08-10T02:40:07.845Z,3.00
2022-08-10T02:45:29.112Z,3.30
2022-08-10T02:45:29.593Z,3.22
2022-08-10T02:47:52.223Z,2.80
2022-08-10T02:50:34.597Z,2.80
2022-08-10T02:53:54.689Z,2.80
2022-08-10T02:55:52.219Z,2.97
2022-08-10T02:58:22.501Z,2.63
2022-08-10T03:00:52.739Z,2.63
2022-08-10T03:03:20.311Z,3.23
2022-08-10T03:05:50.668Z,2.80
2022-08-10T03:08:21.267Z,2.97
2022-08-10T03:10:48.888Z,2.80
2022-08-10T03:13:16.493Z,3.20
2022-08-10T03:15:44.095Z,3.33
2022-08-10T03:18:12.024Z,2.90
2022-08-10T03:20:40.250Z,2.90
2022-08-10T03:23:18.890Z,2.90
2022-08-10T03:25:53.342Z,3.07
2022-08-10T03:28:18.258Z,2.70
2022-08-10T03:30:42.468Z,3.00
2022-08-10T03:33:10.053Z,3.10
2022-08-10T03:35:37.636Z,2.60
2022-08-10T03:38:05.259Z,3.00
2022-08-10T03:40:46.283Z,3.03
2022-08-10T03:43:00.448Z,2.57
2022-08-10T03:45:28.996Z,2.80
2022-08-10T03:47:56.580Z,3.00
2022-08-10T03:50:45.784Z,2.80
2022-08-10T03:52:52.557Z,2.77
2022-08-10T03:56:30.420Z,2.70
2022-08-10T03:57:49.778Z,3.00
2022-08-10T04:00:16.589Z,2.93
2022-08-10T04:02:52.331Z,2.70
2022-08-10T04:05:11.784Z,3.17
2022-08-10T04:07:39.420Z,2.70
2022-08-10T04:10:07.159Z,2.77
2022-08-10T04:12:35.614Z,2.70
2022-08-10T04:15:04.267Z,3.10
2022-08-10T04:17:59.366Z,2.67
2022-08-10T04:19:59.444Z,3.07
2022-08-10T04:22:29.027Z,3.03
2022-08-10T04:24:56.612Z,2.67
2022-08-10T04:27:24.974Z,3.03
2022-08-10T04:29:52.853Z,3.00
2022-08-10T04:32:21.206Z,2.60
2022-08-10T04:34:48.798Z,3.28
2022-08-10T04:37:17.192Z,3.30
2022-08-10T04:39:44.843Z,2.80
2022-08-10T04:42:12.387Z,2.80
2022-08-10T04:44:40.779Z,2.87
2022-08-10T04:47:09.142Z,2.83
2022-08-10T04:49:54.283Z,2.57
2022-08-10T04:52:05.156Z,2.90
2022-08-10T04:54:32.749Z,2.90
2022-08-10T04:57:01.112Z,3.30
2022-08-10T04:59:28.746Z,2.70
2022-08-10T05:02:22.214Z,3.20
2022-08-10T05:04:35.921Z,2.70
2022-08-10T05:06:52.306Z,3.13
2022-08-10T05:09:19.887Z,2.90
2022-08-10T05:11:47.503Z,2.77
2022-08-10T05:14:16.276Z,2.83
2022-08-10T05:16:43.880Z,2.90
2022-08-10T05:19:11.465Z,2.80
2022-08-10T05:22:03.734Z,2.90
2022-08-10T05:24:06.840Z,3.10
2022-08-10T05:26:39.162Z,2.67
2022-08-10T05:29:02.825Z,2.80
2022-08-10T05:31:30.432Z,3.27
2022-08-10T05:33:58.791Z,3.13
2022-08-10T05:36:26.679Z,2.77
2022-08-10T05:38:55.043Z,3.00
2022-08-10T05:41:22.627Z,3.10
2022-08-10T05:43:51.016Z,2.93
2022-08-10T05:46:21.101Z,3.03
2022-08-10T05:48:58.880Z,3.23
2022-08-10T05:51:13.827Z,2.77
2022-08-10T05:54:03.570Z,3.03
2022-08-10T05:56:09.005Z,2.97
2022-08-10T05:58:37.715Z,2.70
2022-08-10T06:01:08.263Z,3.07
2022-08-10T06:03:48.702Z,2.93
2022-08-10T06:06:16.296Z,2.97
2022-08-10T06:08:43.891Z,3.13
2022-08-10T06:12:26.290Z,2.87
2022-08-10T06:14:03.959Z,3.00
2022-08-10T06:16:25.625Z,2.93
2022-08-10T06:18:53.978Z,2.90
2022-08-10T06:21:21.571Z,2.33
2022-08-10T06:23:49.450Z,3.10
2022-08-10T06:26:21.436Z,2.60
2022-08-10T06:29:02.965Z,2.80
2022-08-10T06:31:21.171Z,3.20
2022-08-10T06:33:48.775Z,2.90
2022-08-10T06:36:17.139Z,2.83
2022-08-10T06:38:44.770Z,2.70
2022-08-10T06:41:19.561Z,2.80
2022-08-10T06:43:42.892Z,3.03
2022-08-10T06:46:10.860Z,2.80
2022-08-10T06:48:41.881Z,3.07
2022-08-10T06:51:09.476Z,2.70
2022-08-10T06:53:53.825Z,2.33
2022-08-10T06:56:08.238Z,2.33
2022-08-10T06:58:56.871Z,2.83
2022-08-10T07:01:24.549Z,2.87
2022-08-10T07:03:54.708Z,2.70
2022-08-10T07:06:23.110Z,2.63
2022-08-10T07:08:50.712Z,2.67
2022-08-10T07:11:18.296Z,2.63
2022-08-10T07:14:15.427Z,2.40
2022-08-10T07:16:15.090Z,2.30
2022-08-10T07:18:42.693Z,2.30
2022-08-10T07:21:10.316Z,2.60
2022-08-10T07:23:57.700Z,2.67
2022-08-10T07:26:05.515Z,2.50
2022-08-10T07:28:33.905Z,2.47
2022-08-10T07:31:01.510Z,2.70
2022-08-10T07:33:29.102Z,2.67
2022-08-10T07:35:57.524Z,2.33
2022-08-10T07:38:25.118Z,2.37
2022-08-10T07:40:52.712Z,2.30
2022-08-10T07:43:20.337Z,2.40
2022-08-10T07:45:47.938Z,2.40
2022-08-10T07:48:27.141Z,2.10
2022-08-10T07:50:54.725Z,2.40
2022-08-10T07:53:22.311Z,2.60
2022-08-10T07:56:07.392Z,2.53
2022-08-10T07:58:17.567Z,2.50
2022-08-10T08:00:45.232Z,2.77
2022-08-10T08:03:13.343Z,2.30
2022-08-10T08:05:59.054Z,2.13
2022-08-10T08:08:08.019Z,2.60
2022-08-10T08:10:36.421Z,2.37
2022-08-10T08:13:04.772Z,2.10
2022-08-10T08:16:20.545Z,2.20
2022-08-10T08:18:00.685Z,2.10
2022-08-10T08:20:28.825Z,2.13
2022-08-10T08:24:14.786Z,2.70
2022-08-10T08:25:22.909Z,2.35
2022-08-10T08:27:50.494Z,2.40
2022-08-10T08:30:19.036Z,2.17
2022-08-10T08:32:47.611Z,2.13
2022-08-10T08:35:15.993Z,2.17
2022-08-10T08:38:30.186Z,2.37
2022-08-10T08:40:11.968Z,2.20
2022-08-10T08:42:51.614Z,2.00
2022-08-10T08:45:21.964Z,2.07
2022-08-10T08:48:14.253Z,1.93
2022-08-10T08:51:08.645Z,2.20
2022-08-10T08:54:01.929Z,2.63
2022-08-10T08:56:49.673Z,1.80
2022-08-10T08:59:43.217Z,2.00
2022-08-10T09:02:41.511Z,2.20
2022-08-10T09:05:14.816Z,2.23
2022-08-10T09:08:10.185Z,2.30
2022-08-10T09:10:47.044Z,2.00
2022-08-10T09:13:30.707Z,2.03
2022-08-10T09:16:18.928Z,2.20
2022-08-10T09:18:58.948Z,1.90
2022-08-10T09:22:17.331Z,1.93
2022-08-10T09:24:37.036Z,1.90
2022-08-10T09:27:10.390Z,1.80
2022-08-10T09:29:37.984Z,2.10
2022-08-10T09:36:16.604Z,2.03
2022-08-10T09:36:23.691Z,1.83
2022-08-10T09:37:40.053Z,1.80
2022-08-10T09:40:58.878Z,1.70
2022-08-10T09:43:23.494Z,1.70
2022-08-10T09:45:33.907Z,2.00
2022-08-10T09:48:10.433Z,1.80
2022-08-10T09:51:22.817Z,1.70
2022-08-10T09:53:49.060Z,1.40
2022-08-10T09:56:28.521Z,1.60
2022-08-10T09:59:26.948Z,1.67
2022-08-10T10:02:02.451Z,1.50
2022-08-10T10:04:25.496Z,1.60
2022-08-10T10:06:59.312Z,1.70
2022-08-10T10:09:30.608Z,1.70
2022-08-10T10:12:16.024Z,1.90
2022-08-10T10:15:25.335Z,2.37
2022-08-10T10:18:03.116Z,2.40
2022-08-10T10:20:45.701Z,1.63
2022-08-10T10:23:25.306Z,1.80
2022-08-10T10:26:18.367Z,1.67
2022-08-10T10:29:15.332Z,1.53
2022-08-10T10:31:24.637Z,1.50
2022-08-10T10:34:19.426Z,1.70
2022-08-10T10:36:47.060Z,1.90
2022-08-10T10:39:14.728Z,1.92
2022-08-10T10:42:04.695Z,1.50
2022-08-10T10:44:27.426Z,1.83
2022-08-10T10:46:57.736Z,1.73
2022-08-10T10:49:43.341Z,1.70
2022-08-10T10:52:29.338Z,1.57
2022-08-10T10:55:05.888Z,1.40
2022-08-10T10:58:10.593Z,1.70
2022-08-10T11:00:44.950Z,1.80
2022-08-10T11:03:36.648Z,1.60
2022-08-10T11:06:09.485Z,1.47
2022-08-10T11:08:36.444Z,1.60
2022-08-10T11:11:04.038Z,1.57
2022-08-10T11:14:25.832Z,1.40
2022-08-10T11:16:09.269Z,1.80
2022-08-10T11:18:45.596Z,1.53
2022-08-10T11:21:24.880Z,1.80
2022-08-10T11:24:48.789Z,1.23
2022-08-10T11:26:45.173Z,1.60
2022-08-10T11:29:50.054Z,1.77
2022-08-10T11:32:44.468Z,1.40
2022-08-10T11:35:24.182Z,1.10
2022-08-10T11:38:36.826Z,1.87
2022-08-10T11:40:30.023Z,1.50
2022-08-10T11:43:16.511Z,1.43
2022-08-10T11:45:52.065Z,1.30
2022-08-10T11:48:53.603Z,1.60
2022-08-10T11:50:58.351Z,1.30
2022-08-10T11:53:39.204Z,1.50
2022-08-10T11:56:09.726Z,1.40
2022-08-10T11:58:48.914Z,1.50
2022-08-10T12:01:16.499Z,1.80
2022-08-10T12:03:44.095Z,1.57
2022-08-10T12:06:11.725Z,1.57
2022-08-10T12:10:03.729Z,1.65
2022-08-10T12:11:06.894Z,1.53
2022-08-10T12:13:38.484Z,1.50
2022-08-10T12:16:09.061Z,1.20
2022-08-10T12:18:55.029Z,1.27
2022-08-10T12:21:25.370Z,1.60
2022-08-10T12:24:03.236Z,1.37
2022-08-10T12:26:23.324Z,1.30
2022-08-10T12:28:56.896Z,1.30
2022-08-10T12:31:24.522Z,1.40
2022-08-10T12:34:10.247Z,1.40
2022-08-10T12:36:40.786Z,1.40
2022-08-10T12:39:14.198Z,1.20
2022-08-10T12:41:44.809Z,1.40
2022-08-10T12:44:09.805Z,1.10
2022-08-10T12:46:40.052Z,1.20
2022-08-10T12:49:28.787Z,1.20
2022-08-10T12:52:15.078Z,1.30
2022-08-10T12:54:42.682Z,1.20
2022-08-10T12:57:13.051Z,1.40
2022-08-10T12:59:43.856Z,1.52
2022-08-10T13:02:20.167Z,1.37
2022-08-10T13:04:48.524Z,1.40
2022-08-10T13:08:24.958Z,0.93
2022-08-10T13:09:55.451Z,1.10
2022-08-10T13:12:38.031Z,1.37
2022-08-10T13:14:50.479Z,1.20
2022-08-10T13:17:39.072Z,1.48
2022-08-10T13:20:01.590Z,1.57
2022-08-10T13:22:25.097Z,1.60
2022-08-10T13:24:55.694Z,1.37
2022-08-10T13:27:25.857Z,1.17
2022-08-10T13:29:50.732Z,1.37
2022-08-10T13:32:25.229Z,1.20
2022-08-10T13:34:52.815Z,1.40
2022-08-10T13:37:21.178Z,1.45
2022-08-10T13:39:58.990Z,1.27
2022-08-10T13:42:16.420Z,1.30
2022-08-10T13:44:44.025Z,1.55
2022-08-10T13:47:11.658Z,1.40
2022-08-10T13:49:51.525Z,1.50
2022-08-10T13:52:21.900Z,1.00
2022-08-10T13:54:50.262Z,1.30
2022-08-10T13:57:20.524Z,1.37
2022-08-10T14:00:34.870Z,1.17
2022-08-10T14:02:16.659Z,1.13
2022-08-10T14:04:47.205Z,1.30
2022-08-10T14:07:14.838Z,1.33
2022-08-10T14:09:43.200Z,1.10
2022-08-10T14:12:10.793Z,1.30
2022-08-10T14:14:38.466Z,1.20
2022-08-10T14:17:06.789Z,1.07
2022-08-10T14:19:34.392Z,1.07
2022-08-10T14:22:02.331Z,1.10
2022-08-10T14:24:29.925Z,1.27
2022-08-10T14:26:57.519Z,1.10
2022-08-10T14:29:25.175Z,1.50
2022-08-10T14:32:01.610Z,1.40
2022-08-10T14:34:20.356Z,1.40
2022-08-10T14:36:48.743Z,1.30
2022-08-10T14:39:16.349Z,1.30
2022-08-10T14:42:01.576Z,1.23
2022-08-10T14:44:11.562Z,1.10
2022-08-10T14:46:39.165Z,1.27
2022-08-10T14:49:26.642Z,1.52
2022-08-10T14:51:44.154Z,1.30
2022-08-10T14:54:02.726Z,1.03
2022-08-10T14:56:33.293Z,1.30
2022-08-10T14:59:06.835Z,1.33
2022-08-10T15:02:00.502Z,1.50
2022-08-10T15:04:02.931Z,1.37
2022-08-10T15:06:31.038Z,1.20
2022-08-10T15:08:54.629Z,1.23
2022-08-10T15:12:13.045Z,1.17
2022-08-10T15:14:14.822Z,1.40
2022-08-10T15:16:17.439Z,1.17
2022-08-10T15:18:58.082Z,1.50
2022-08-10T15:21:17.229Z,1.40
2022-08-10T15:24:04.626Z,1.40
2022-08-10T15:26:14.500Z,1.35
2022-08-10T15:29:23.486Z,1.30
2022-08-10T15:31:19.691Z,1.10
2022-08-10T15:34:05.779Z,1.52
2022-08-10T15:37:30.539Z,1.23
2022-08-10T15:40:21.008Z,1.27
2022-08-10T15:42:17.808Z,1.08
2022-08-10T15:44:45.461Z,1.42
2022-08-10T15:47:46.300Z,1.60
2022-08-10T15:50:05.463Z,1.37
2022-08-10T15:52:39.119Z,1.50
2022-08-10T15:55:03.278Z,1.47
2022-08-10T15:57:31.848Z,1.60
2022-08-10T16:00:02.729Z,1.70
2022-08-10T16:02:30.412Z,1.92
2022-08-10T16:05:15.925Z,1.40
2022-08-10T16:07:49.378Z,1.45
2022-08-10T16:10:27.659Z,1.55
2022-08-10T16:12:59.571Z,1.40
2022-08-10T16:15:25.118Z,1.45
2022-08-10T16:17:56.338Z,1.37
2022-08-10T16:20:47.906Z,1.48
2022-08-10T16:23:03.088Z,1.45
2022-08-10T16:25:48.227Z,1.60
2022-08-10T16:28:04.580Z,1.35
2022-08-10T16:30:40.769Z,1.45
2022-08-10T16:33:09.446Z,1.27
2022-08-10T16:35:37.040Z,1.60
2022-08-10T16:38:04.643Z,1.55
2022-08-10T16:40:32.323Z,1.60
2022-08-10T16:42:59.880Z,1.30
2022-08-10T16:45:36.571Z,1.35
2022-08-10T16:48:05.041Z,1.77
2022-08-10T16:50:38.061Z,1.45
2022-08-10T16:53:05.656Z,1.42
2022-08-10T16:55:49.124Z,1.42
2022-08-10T16:58:00.923Z,1.75
2022-08-10T17:00:29.274Z,1.60
2022-08-10T17:02:56.908Z,1.67
2022-08-10T17:06:10.235Z,1.50
2022-08-10T17:07:52.084Z,1.60
2022-08-10T17:10:20.506Z,1.87
2022-08-10T17:12:48.089Z,1.60
2022-08-10T17:15:15.674Z,1.83
2022-08-10T17:17:47.159Z,1.52
2022-08-10T17:20:30.355Z,1.35
2022-08-10T17:22:42.349Z,1.48
2022-08-10T17:25:13.580Z,1.58
2022-08-10T17:28:05.004Z,1.52
2022-08-10T17:30:15.998Z,1.87
2022-08-10T17:32:44.367Z,1.50
2022-08-10T17:35:06.988Z,1.80
2022-08-10T17:37:34.594Z,1.87
2022-08-10T17:40:08.530Z,1.42
2022-08-10T17:42:36.124Z,1.45
2022-08-10T17:45:03.706Z,1.67
2022-08-10T17:47:31.330Z,1.95
2022-08-10T17:49:58.914Z,1.50
2022-08-10T17:52:27.273Z,1.60
2022-08-10T17:54:54.902Z,1.40
2022-08-10T17:57:22.481Z,1.48
2022-08-10T17:59:50.085Z,1.30
2022-08-10T18:02:20.783Z,1.57
2022-08-10T18:04:48.333Z,1.70
2022-08-10T18:07:15.910Z,1.70
2022-08-10T18:09:43.533Z,1.60
2022-08-10T18:12:17.498Z,1.60
2022-08-10T18:14:38.700Z,1.43
2022-08-10T18:17:07.208Z,1.80
2022-08-10T18:19:34.803Z,1.77
2022-08-10T18:22:02.408Z,1.90
2022-08-10T18:24:30.808Z,1.87
2022-08-10T18:26:58.402Z,1.50
2022-08-10T18:29:25.989Z,1.50
2022-08-10T18:31:56.526Z,1.53
2022-08-10T18:34:24.886Z,1.77
2022-08-10T18:36:52.480Z,1.70
2022-08-10T18:39:23.123Z,1.70
2022-08-10T18:42:00.248Z,2.00
2022-08-10T18:44:19.022Z,1.33
2022-08-10T18:46:58.590Z,1.80
2022-08-10T18:49:37.921Z,1.90
2022-08-10T18:52:09.197Z,1.57
2022-08-10T18:54:45.046Z,1.90
2022-08-10T18:57:07.179Z,2.10
2022-08-10T19:00:09.327Z,1.50
2022-08-10T19:02:58.068Z,1.83
2022-08-10T19:05:37.949Z,1.60
2022-08-10T19:08:31.325Z,1.90
2022-08-10T19:11:03.955Z,1.83
2022-08-10T19:13:49.056Z,1.90
2022-08-10T19:16:17.961Z,1.90
2022-08-10T19:19:06.369Z,1.73
2022-08-10T19:21:40.244Z,1.57
2022-08-10T19:24:20.141Z,2.10
2022-08-10T19:26:47.768Z,1.80
2022-08-10T19:30:09.709Z,2.03
2022-08-10T19:32:03.781Z,1.80
2022-08-10T19:34:34.072Z,1.77
2022-08-10T19:37:32.655Z,1.77
2022-08-10T19:39:53.943Z,1.67
2022-08-10T19:42:21.481Z,2.00
2022-08-10T19:44:58.861Z,2.00
2022-08-10T19:47:36.573Z,1.87
2022-08-10T19:50:10.708Z,1.97
2022-08-10T19:52:50.098Z,5.05
2022-08-10T19:55:29.437Z,15.43
2022-08-10T19:58:03.517Z,15.97
2022-08-10T20:00:34.236Z,13.23
2022-08-10T20:03:16.696Z,7.60
2022-08-10T20:06:18.127Z,2.93
2022-08-10T20:08:28.348Z,3.40
2022-08-10T20:10:58.029Z,2.87
2022-08-10T20:13:49.529Z,2.40
2022-08-10T20:16:20.776Z,5.60
2022-08-10T20:18:51.579Z,7.07
2022-08-10T20:21:27.602Z,6.30
2022-08-10T20:24:10.461Z,4.53
2022-08-10T20:26:43.919Z,4.57
2022-08-10T20:29:57.804Z,8.97
2022-08-10T20:31:51.238Z,7.80
2022-08-10T20:34:28.038Z,10.43
2022-08-10T20:36:58.685Z,7.17
2022-08-10T20:39:57.216Z,5.37
2022-08-10T20:43:01.573Z,5.27
2022-08-10T20:45:41.542Z,3.30
2022-08-10T20:48:07.493Z,2.93
2022-08-10T20:50:38.042Z,3.30
2022-08-10T20:53:15.083Z,3.70
2022-08-10T20:55:47.811Z,5.33
2022-08-10T20:58:33.029Z,3.63
2022-08-10T21:01:13.810Z,3.67
2022-08-10T21:04:15.095Z,4.40
2022-08-10T21:07:01.041Z,4.40
2022-08-10T21:09:44.238Z,4.50
2022-08-10T21:12:16.086Z,4.60
2022-08-10T21:14:42.216Z,4.13
2022-08-10T21:17:18.869Z,3.60
2022-08-10T21:20:14.109Z,4.03
2022-08-10T21:22:41.734Z,3.80
2022-08-10T21:25:09.338Z,3.30
2022-08-10T21:27:42.680Z,3.57
2022-08-10T21:30:12.745Z,3.45
2022-08-10T21:35:44.395Z,3.10
2022-08-10T21:38:16.044Z,3.00
2022-08-10T21:41:17.578Z,2.80
2022-08-10T21:43:50.361Z,2.40
2022-08-10T21:46:55.146Z,2.80
2022-08-10T21:49:48.652Z,3.30
2022-08-10T21:52:37.344Z,2.50
2022-08-10T21:55:22.755Z,2.83
2022-08-10T21:58:32.566Z,2.67
2022-08-10T22:01:18.238Z,2.60
2022-08-10T22:04:03.988Z,2.37
2022-08-10T22:06:52.065Z,2.63
2022-08-10T22:09:42.688Z,2.33
2022-08-10T22:12:31.155Z,2.50
2022-08-10T22:15:07.522Z,2.90
2022-08-10T22:18:03.679Z,2.83
2022-08-10T22:20:41.441Z,2.70
2022-08-10T22:23:32.676Z,2.80
2022-08-10T22:26:56.533Z,3.20
2022-08-10T22:29:42.535Z,2.60
2022-08-10T22:31:26.907Z,3.20
2022-08-10T22:32:27.254Z,2.47
2022-08-10T22:35:21.491Z,3.07
2022-08-10T22:38:25.222Z,2.87
2022-08-10T22:41:11.857Z,2.83
2022-08-10T22:43:57.774Z,2.70
2022-08-10T22:46:46.074Z,2.53
2022-08-10T22:49:13.225Z,2.80
2022-08-10T22:51:40.810Z,2.80
2022-08-10T22:54:32.725Z,2.77
2022-08-10T22:57:20.925Z,2.50
2022-08-10T22:59:49.635Z,2.73
2022-08-10T23:02:32.296Z,2.57
2022-08-10T23:05:06.441Z,2.83
2022-08-10T23:07:34.814Z,2.63
2022-08-10T23:10:05.892Z,2.63
2022-08-10T23:12:36.446Z,2.57
2022-08-10T23:15:22.062Z,2.77
2022-08-10T23:18:07.902Z,2.70
2022-08-10T23:20:35.496Z,2.97
2022-08-10T23:23:09.065Z,3.23
2022-08-10T23:25:32.889Z,3.07
2022-08-10T23:28:01.623Z,3.43
2022-08-10T23:30:34.869Z,3.47
2022-08-10T23:33:03.263Z,3.43
2022-08-10T23:36:30.965Z,3.20
2022-08-10T23:38:15.057Z,3.30
2022-08-10T23:40:46.394Z,3.07
2022-08-10T23:43:16.773Z,3.13
2022-08-10T23:45:53.969Z,3.40
2022-08-10T23:48:12.749Z,2.83
2022-08-10T23:50:40.342Z,4.40
2022-08-10T23:53:13.286Z,3.07
2022-08-10T23:55:48.848Z,3.17
2022-08-10T23:58:09.518Z,3.10
